American Freedom — KAFK — position and weather

sailwx.info

Track history (hours):
 
Tides and Currents Weather Stations Pressure Air Temp Water Temp Dewpoint Dewpoint Depression Visibility Wind Speed Wind Dir Waves Ship Positions

American Freedom

Owner: Crowley Petroleum Services, Jacksonville, FL. More information available from US FCC via Universal Licensing System and Coast Guard Vessel Documentation Center.

Last reported at 2018-Jun-24 00:01 UTC. Time now 2018-Jun-24 09:20 UTC.
Position N 44°22' W 125°45'.

Length 183 m; draft 12.1 m.

Type: Tanker. MMSI: 369042000.

Date/timePositionNaut miles runAvg speedWind from/ knotsBaromVisibWave heightAir tempDewpointWater temp
2018-Jun-24 00:01N 44°22' W 125°45'2713.6
2018-Jun-23 22:01N 44°49' W 125°45'013.7
2018-Jun-23 22:00N 44°49' W 125°45'813.5
2018-Jun-23 21:25N 44°57' W 125°45'613.5
2018-Jun-23 21:00N 45°03' W 125°45'813.4
2018-Jun-23 20:23N 45°11' W 125°45'513.6
2018-Jun-23 20:00N 45°16' W 125°45'1213.6
2018-Jun-23 19:05N 45°29' W 125°45'613.6
2018-Jun-23 18:40N 45°34' W 125°45'1213.8
2018-Jun-23 17:49N 45°46' W 125°45'4813.7
2018-Jun-23 14:20N 46°34' W 125°44'1613.7
2018-Jun-23 13:10N 46°50' W 125°44'8813.1
2018-Jun-23 06:28N 48°16' W 125°17'713.4
2018-Jun-23 05:58N 48°22' W 125°11'713.0
2018-Jun-23 05:26N 48°27' W 125°05'512.4
2018-Jun-23 05:01N 48°31' W 124°59'612.9
2018-Jun-23 04:31N 48°30' W 124°49'713.2
2018-Jun-23 04:00N 48°30' W 124°39'713.6
2018-Jun-23 03:31N 48°27' W 124°30'713.6
2018-Jun-23 03:01N 48°24' W 124°20'713.6
2018-Jun-23 02:30N 48°21' W 124°11'713.6
2018-Jun-23 02:00N 48°19' W 124°01'713.6
2018-Jun-23 01:30N 48°17' W 123°51'19 1.4
2018-Jun-22 11:38N 48°08' W 123°27'0 0.0
2018-Jun-22 11:28N 48°08' W 123°27'0 0.2
2018-Jun-22 10:59N 48°08' W 123°27'1 2.0
2018-Jun-22 10:29N 48°08' W 123°25'5 7.3
2018-Jun-22 09:51N 48°10' W 123°19'512.9
2018-Jun-22 09:29N 48°13' W 123°13'4 7.3
2018-Jun-22 08:59N 48°15' W 123°09'0 0.8
2018-Jun-22 08:27N 48°16' W 123°09'511.5
2018-Jun-22 07:59N 48°19' W 123°03'611.9
2018-Jun-22 07:30N 48°21' W 122°55'611.2
2018-Jun-22 07:01N 48°24' W 122°48'5 9.9
2018-Jun-22 06:30N 48°29' W 122°44'4 7.6
2018-Jun-22 06:00N 48°31' W 122°40'3 6.2
2018-Jun-22 05:31N 48°31' W 122°36'1 2.7
2018-Jun-22 05:00N 48°31' W 122°34'0 0.0
2018-Jun-22 04:30N 48°31' W 122°34'0 0.0
2018-Jun-22 04:00N 48°31' W 122°34'0 0.0
2018-Jun-22 03:30N 48°31' W 122°34'0 0.0
2018-Jun-22 03:00N 48°31' W 122°34'0 0.0
2018-Jun-22 02:30N 48°31' W 122°34'0 0.0
2018-Jun-22 02:00N 48°31' W 122°34'0 0.0
2018-Jun-22 01:30N 48°31' W 122°34'0 0.0
2018-Jun-22 01:00N 48°31' W 122°34'0 0.0
2018-Jun-22 00:30N 48°31' W 122°34'0 0.0
2018-Jun-22 00:00N 48°31' W 122°34'0 0.0
2018-Jun-21 23:30N 48°31' W 122°34'0 0.0
2018-Jun-21 23:00N 48°31' W 122°34'0 0.0
2018-Jun-21 22:30N 48°31' W 122°34'0 0.0
2018-Jun-21 22:00N 48°31' W 122°34'0 0.0
2018-Jun-21 21:30N 48°31' W 122°34'0 0.0
2018-Jun-21 21:00N 48°31' W 122°34'0 0.0
2018-Jun-21 20:30N 48°31' W 122°34'0 0.0
2018-Jun-21 20:00N 48°31' W 122°34'0 0.0
2018-Jun-21 19:30N 48°31' W 122°34'0 0.0
2018-Jun-21 19:00N 48°31' W 122°34'0 0.0
2018-Jun-21 18:30N 48°31' W 122°34'0 0.0
2018-Jun-21 18:00N 48°31' W 122°34'0 0.0
2018-Jun-21 17:30N 48°31' W 122°34'0 0.0
2018-Jun-21 17:00N 48°31' W 122°34'0 0.0
2018-Jun-21 16:30N 48°31' W 122°34'0 0.0
2018-Jun-21 16:00N 48°31' W 122°34'0 0.0
2018-Jun-21 15:30N 48°31' W 122°34'0 0.0
2018-Jun-21 15:00N 48°31' W 122°34'0 0.0
2018-Jun-21 14:30N 48°31' W 122°34'0 0.0
2018-Jun-21 14:00N 48°31' W 122°34'0 0.0
2018-Jun-21 13:30N 48°31' W 122°34'0 0.0
2018-Jun-21 13:00N 48°31' W 122°34'0 0.0
2018-Jun-21 12:30N 48°31' W 122°34'0 0.0
2018-Jun-21 12:00N 48°31' W 122°34'0 0.0
2018-Jun-21 11:30N 48°31' W 122°34'0 0.0
2018-Jun-21 11:00N 48°31' W 122°34'0 0.0
2018-Jun-21 10:30N 48°31' W 122°34'0 0.0
2018-Jun-21 10:00N 48°31' W 122°34'0 0.0
2018-Jun-21 09:30N 48°31' W 122°34'0 0.0
2018-Jun-21 08:48N 48°31' W 122°34'0 0.0
2018-Jun-21 08:30N 48°31' W 122°34'0 0.0
2018-Jun-21 08:00N 48°31' W 122°34'0 0.0
2018-Jun-21 07:30N 48°31' W 122°34'0 0.0
2018-Jun-21 07:00N 48°31' W 122°34'0 0.0
2018-Jun-21 06:30N 48°31' W 122°34'0 0.0
2018-Jun-21 06:00N 48°31' W 122°34'0 0.0
2018-Jun-21 05:30N 48°31' W 122°34'0 0.0
2018-Jun-21 05:00N 48°31' W 122°34'0 0.0
2018-Jun-21 04:30N 48°31' W 122°34'0 0.0
2018-Jun-21 04:00N 48°31' W 122°34'0 0.0
2018-Jun-21 03:30N 48°31' W 122°34'0 0.0
2018-Jun-21 02:59N 48°31' W 122°34'0 0.0
2018-Jun-21 02:30N 48°31' W 122°34'0 0.0
2018-Jun-21 02:00N 48°31' W 122°34'0 0.0
2018-Jun-21 01:30N 48°31' W 122°34'0 0.0
2018-Jun-21 01:00N 48°31' W 122°34'0 0.0
2018-Jun-21 00:30N 48°31' W 122°34'0 0.0
2018-Jun-21 00:00N 48°31' W 122°34'0 0.0
2018-Jun-20 23:30N 48°31' W 122°34'0 0.0
2018-Jun-20 23:00N 48°31' W 122°34'0 0.0
2018-Jun-20 22:30N 48°31' W 122°34'0 0.0
2018-Jun-20 22:00N 48°31' W 122°34'0 0.0
2018-Jun-20 21:30N 48°31' W 122°34'0 0.0
2018-Jun-20 21:00N 48°31' W 122°34'0 0.0
2018-Jun-20 20:30N 48°31' W 122°34'0 0.0
2018-Jun-20 20:00N 48°31' W 122°34'0 0.0
2018-Jun-20 19:30N 48°31' W 122°34'0 0.0
2018-Jun-20 19:00N 48°31' W 122°34'0 0.0
2018-Jun-20 18:30N 48°31' W 122°34'0 0.0
2018-Jun-20 18:00N 48°31' W 122°34'0 0.0
2018-Jun-20 17:30N 48°31' W 122°34'0 0.0
2018-Jun-20 17:00N 48°31' W 122°34'0 0.0
2018-Jun-20 16:30N 48°31' W 122°34'0 0.0
2018-Jun-20 16:00N 48°31' W 122°34'0 0.0
2018-Jun-20 15:30N 48°31' W 122°34'0 0.0
2018-Jun-20 15:00N 48°31' W 122°34'0 0.0
2018-Jun-20 14:30N 48°31' W 122°34'0 0.0
2018-Jun-20 14:00N 48°31' W 122°34'0 0.0
2018-Jun-20 13:30N 48°31' W 122°34'0 0.0
2018-Jun-20 13:00N 48°31' W 122°34'0 0.0
2018-Jun-20 12:30N 48°31' W 122°34'0 0.0
2018-Jun-20 12:00N 48°31' W 122°34'0 0.0
2018-Jun-20 11:30N 48°31' W 122°34'0 0.0
2018-Jun-20 11:00N 48°31' W 122°34'0 0.0
2018-Jun-20 10:30N 48°31' W 122°34'0 0.0
2018-Jun-20 10:00N 48°31' W 122°34'0 0.0
2018-Jun-20 09:30N 48°31' W 122°34'0 0.0
2018-Jun-20 09:00N 48°31' W 122°34'0 0.0
2018-Jun-20 08:29N 48°31' W 122°34'0 0.0
2018-Jun-20 08:00N 48°31' W 122°34'0 0.0
2018-Jun-20 07:30N 48°31' W 122°34'0 0.0
2018-Jun-20 07:00N 48°31' W 122°34'0 0.0
2018-Jun-20 06:30N 48°31' W 122°34'0 0.0
2018-Jun-20 05:59N 48°31' W 122°34'0 0.0
2018-Jun-20 05:30N 48°31' W 122°34'0 0.0
2018-Jun-20 05:00N 48°31' W 122°34'0 0.0
2018-Jun-20 04:30N 48°31' W 122°34'0 0.0
2018-Jun-20 04:00N 48°31' W 122°34'0 0.0
2018-Jun-20 03:30N 48°31' W 122°34'0 0.0
2018-Jun-20 03:00N 48°31' W 122°34'0 0.0
2018-Jun-20 02:30N 48°31' W 122°34'0 0.0
2018-Jun-20 02:00N 48°31' W 122°34'0 0.0
2018-Jun-20 01:29N 48°31' W 122°34'0 0.0
2018-Jun-20 00:59N 48°31' W 122°34'0 0.0
2018-Jun-20 00:30N 48°31' W 122°34'0 0.0
2018-Jun-20 00:00N 48°31' W 122°34'0 0.0
2018-Jun-19 23:30N 48°31' W 122°34'0 0.0
2018-Jun-19 22:59N 48°31' W 122°34'0 0.0
2018-Jun-19 22:30N 48°31' W 122°34'0 0.0
2018-Jun-19 22:00N 48°31' W 122°34'0 0.0
2018-Jun-19 21:30N 48°31' W 122°34'0 0.0
2018-Jun-19 20:59N 48°31' W 122°34'0 0.0
2018-Jun-19 20:30N 48°31' W 122°34'0 0.0
2018-Jun-19 20:00N 48°31' W 122°34'0 0.0
2018-Jun-19 19:30N 48°31' W 122°34'0 0.0
2018-Jun-19 19:00N 48°31' W 122°34'0 0.0
2018-Jun-19 18:29N 48°31' W 122°34'0 0.0
2018-Jun-19 17:59N 48°31' W 122°34'0 0.0
2018-Jun-19 17:29N 48°31' W 122°34'0 0.0
2018-Jun-19 16:59N 48°31' W 122°34'0 0.0
2018-Jun-19 16:29N 48°31' W 122°34'0 0.0
2018-Jun-19 15:59N 48°31' W 122°34'0 0.0
2018-Jun-19 15:30N 48°31' W 122°34'0 0.0
2018-Jun-19 14:59N 48°31' W 122°34'0 0.0
2018-Jun-19 14:30N 48°31' W 122°34'0 0.0
2018-Jun-19 13:59N 48°31' W 122°34'0 0.0
2018-Jun-19 13:29N 48°31' W 122°34'0 0.0
2018-Jun-19 12:59N 48°31' W 122°34'0 0.0
2018-Jun-19 12:29N 48°31' W 122°34'0 0.0
2018-Jun-19 11:59N 48°31' W 122°34'0 0.0
2018-Jun-19 11:29N 48°31' W 122°34'0 0.0
2018-Jun-19 10:59N 48°31' W 122°34'0 0.0
2018-Jun-19 10:29N 48°31' W 122°34'0 0.0
2018-Jun-19 09:59N 48°31' W 122°34'0 0.0
2018-Jun-19 09:29N 48°31' W 122°34'0 0.0
2018-Jun-19 08:59N 48°31' W 122°34'0 0.0
2018-Jun-19 08:29N 48°31' W 122°34'0 0.0
2018-Jun-19 07:59N 48°31' W 122°34'0 0.0
2018-Jun-19 07:29N 48°31' W 122°34'0 0.0
2018-Jun-19 06:59N 48°31' W 122°34'0 0.0
2018-Jun-19 06:29N 48°31' W 122°34'0 0.0
2018-Jun-19 05:59N 48°31' W 122°34'0 0.0
2018-Jun-19 05:29N 48°31' W 122°34'0 0.0
2018-Jun-19 04:59N 48°31' W 122°34'0 0.0
2018-Jun-19 04:29N 48°31' W 122°34'0 0.0
2018-Jun-19 03:59N 48°31' W 122°34'0 0.0
2018-Jun-19 03:29N 48°31' W 122°34'0 0.0
2018-Jun-19 02:59N 48°31' W 122°34'0 0.0
2018-Jun-19 02:29N 48°31' W 122°34'0 0.0
2018-Jun-19 01:59N 48°31' W 122°34'0 0.0
2018-Jun-19 01:29N 48°31' W 122°34'0 0.0
2018-Jun-19 00:59N 48°31' W 122°34'0 0.0
2018-Jun-19 00:29N 48°31' W 122°34'0 0.0
2018-Jun-18 23:59N 48°31' W 122°34'0 0.0
2018-Jun-18 23:29N 48°31' W 122°34'0 0.0
2018-Jun-18 22:59N 48°31' W 122°34'0 0.0
2018-Jun-18 22:29N 48°31' W 122°34'0 0.0
2018-Jun-18 21:59N 48°31' W 122°34'0 0.0
2018-Jun-18 21:29N 48°31' W 122°34'0 0.0
2018-Jun-18 20:59N 48°31' W 122°34'0 0.0
2018-Jun-18 20:29N 48°31' W 122°34'0 0.0
2018-Jun-18 19:59N 48°31' W 122°34'0 0.0
2018-Jun-18 19:29N 48°31' W 122°34'0 0.0
2018-Jun-18 18:59N 48°31' W 122°34'0 0.0
2018-Jun-18 18:29N 48°31' W 122°34'0 0.0
2018-Jun-18 17:59N 48°31' W 122°34'0 0.0
2018-Jun-18 17:29N 48°31' W 122°34'0 0.0
2018-Jun-18 16:59N 48°31' W 122°34'0 0.0
2018-Jun-18 16:29N 48°31' W 122°34'0 0.0
2018-Jun-18 15:59N 48°31' W 122°34'0 0.0
2018-Jun-18 15:29N 48°31' W 122°34'0 0.0
2018-Jun-18 14:59N 48°31' W 122°34'0 0.0
2018-Jun-18 14:29N 48°31' W 122°34'0 0.0
2018-Jun-18 13:59N 48°31' W 122°34'0 0.0
2018-Jun-18 13:29N 48°31' W 122°34'0 0.0
2018-Jun-18 12:59N 48°31' W 122°34'0 0.0
2018-Jun-18 12:30N 48°31' W 122°34'1 1.5
2018-Jun-18 12:00N 48°31' W 122°35'3 5.2
2018-Jun-18 11:30N 48°31' W 122°39'4 7.9
2018-Jun-18 11:00N 48°29' W 122°44'5 9.1
2018-Jun-18 10:30N 48°25' W 122°47'611.1
2018-Jun-18 10:00N 48°22' W 122°54'611.9
2018-Jun-18 09:28N 48°18' W 123°02'611.6
2018-Jun-18 08:57N 48°15' W 123°09'21 9.3
2018-Jun-18 06:43N 48°13' W 123°40'311.8
2018-Jun-18 06:30N 48°13' W 123°44'611.3
2018-Jun-18 05:58N 48°13' W 123°53'611.6
2018-Jun-18 05:28N 48°15' W 124°01'511.8
2018-Jun-18 05:00N 48°18' W 124°09'612.1
2018-Jun-18 04:30N 48°20' W 124°17'612.5
2018-Jun-18 04:00N 48°23' W 124°26'612.5
2018-Jun-18 03:30N 48°26' W 124°34'612.2
2018-Jun-18 03:00N 48°28' W 124°42'611.8
2018-Jun-18 02:30N 48°29' W 124°51'611.6
2018-Jun-18 01:59N 48°29' W 125°00'612.3
2018-Jun-18 01:30N 48°29' W 125°09'612.3
2018-Jun-18 01:00N 48°29' W 125°19'612.1
2018-Jun-18 00:30N 48°29' W 125°28'611.4
2018-Jun-18 00:00N 48°29' W 125°36'611.6
2018-Jun-17 23:30N 48°29' W 125°45'611.8
2018-Jun-17 23:00N 48°29' W 125°54'611.8
2018-Jun-17 22:30N 48°28' W 126°03'611.5
2018-Jun-17 22:00N 48°29' W 126°12'611.8
2018-Jun-17 21:30N 48°29' W 126°21'612.0
2018-Jun-17 21:00N 48°29' W 126°30'611.7
2018-Jun-17 20:30N 48°29' W 126°38'611.8
2018-Jun-17 20:00N 48°29' W 126°47'611.3
2018-Jun-17 19:30N 48°29' W 126°56'611.7
2018-Jun-17 19:00N 48°32' W 127°04'611.8
2018-Jun-17 18:30N 48°35' W 127°12'611.7
2018-Jun-17 18:00N 48°37' W 127°20'612.1
2018-Jun-17 17:30N 48°40' W 127°28'611.6
2018-Jun-17 17:00N 48°43' W 127°35'7712.3
2018-Jun-17 10:45N 49°20' W 129°18'513.7
2018-Jun-17 10:25N 49°23' W 129°24'613.6
2018-Jun-17 10:00N 49°26' W 129°31'713.7
2018-Jun-17 09:30N 49°29' W 129°40'713.5
2018-Jun-17 09:00N 49°32' W 129°50'713.5
2018-Jun-17 08:31N 49°35' W 129°59'713.5
2018-Jun-17 08:01N 49°38' W 130°08'713.6
2018-Jun-17 07:30N 49°42' W 130°17'713.5
2018-Jun-17 07:01N 49°45' W 130°26'713.5
2018-Jun-17 06:30N 49°48' W 130°36'1813.8
2018-Jun-17 05:10N 49°57' W 131°01'214.0
2018-Jun-17 05:01N 49°58' W 131°04'714.2
2018-Jun-17 04:30N 50°01' W 131°13'714.0
2018-Jun-17 04:00N 50°05' W 131°23'714.4
2018-Jun-17 03:31N 50°08' W 131°33'714.4
2018-Jun-17 03:00N 50°12' W 131°43'714.3
2018-Jun-17 02:30N 50°15' W 131°53'713.8
2018-Jun-17 02:00N 50°18' W 132°02'713.6
2018-Jun-17 01:30N 50°22' W 132°11'813.9
2018-Jun-17 00:57N 50°25' W 132°22'613.9
2018-Jun-17 00:30N 50°28' W 132°30'2613.6
2018-Jun-16 22:35N 50°41' W 133°06'113.0
2018-Jun-16 22:29N 50°42' W 133°08'613.2
2018-Jun-16 22:00N 50°45' W 133°16'1113.3
2018-Jun-16 21:11N 50°52' W 133°30'313.5
2018-Jun-16 20:59N 50°54' W 133°33'613.4
2018-Jun-16 20:30N 50°57' W 133°42'1936.1
2018-Jun-16 20:00N 51°12' W 134°00'31513.1 320 / 161028.410.8 15.5 10.8
2018-Jun-15 20:00N 54°24' W 140°54'31913.3 140 / 201027.1 5.4 11.5 9.3
2018-Jun-14 20:00N 57°36' W 148°30'   250 / 271018.510.8 12.0 8.9
Track history (hours):
 
Tides and Currents Weather Stations Pressure Air Temp Water Temp Dewpoint Dewpoint Depression Visibility Wind Speed Wind Dir Waves Ship Positions

American Freedom

Owner: Crowley Petroleum Services, Jacksonville, FL. More information available from US FCC via Universal Licensing System and Coast Guard Vessel Documentation Center.

Last reported at 2018-Jun-24 00:01 UTC. Time now 2018-Jun-24 09:20 UTC.
Position N 44°22' W 125°45'.

Length 183 m; draft 12.1 m.

Type: Tanker. MMSI: 369042000.

Date/timePositionNaut miles runAvg speedWind from/ knotsBaromVisibWave heightAir tempDewpointWater temp
2018-Jun-24 00:01N 44°22' W 125°45'2713.6
2018-Jun-23 22:01N 44°49' W 125°45'013.7
2018-Jun-23 22:00N 44°49' W 125°45'813.5
2018-Jun-23 21:25N 44°57' W 125°45'613.5
2018-Jun-23 21:00N 45°03' W 125°45'813.4
2018-Jun-23 20:23N 45°11' W 125°45'513.6
2018-Jun-23 20:00N 45°16' W 125°45'1213.6
2018-Jun-23 19:05N 45°29' W 125°45'613.6
2018-Jun-23 18:40N 45°34' W 125°45'1213.8
2018-Jun-23 17:49N 45°46' W 125°45'4813.7
2018-Jun-23 14:20N 46°34' W 125°44'1613.7
2018-Jun-23 13:10N 46°50' W 125°44'8813.1
2018-Jun-23 06:28N 48°16' W 125°17'713.4
2018-Jun-23 05:58N 48°22' W 125°11'713.0
2018-Jun-23 05:26N 48°27' W 125°05'512.4
2018-Jun-23 05:01N 48°31' W 124°59'612.9
2018-Jun-23 04:31N 48°30' W 124°49'713.2
2018-Jun-23 04:00N 48°30' W 124°39'713.6
2018-Jun-23 03:31N 48°27' W 124°30'713.6
2018-Jun-23 03:01N 48°24' W 124°20'713.6
2018-Jun-23 02:30N 48°21' W 124°11'713.6
2018-Jun-23 02:00N 48°19' W 124°01'713.6
2018-Jun-23 01:30N 48°17' W 123°51'19 1.4
2018-Jun-22 11:38N 48°08' W 123°27'0 0.0
2018-Jun-22 11:28N 48°08' W 123°27'0 0.2
2018-Jun-22 10:59N 48°08' W 123°27'1 2.0
2018-Jun-22 10:29N 48°08' W 123°25'5 7.3
2018-Jun-22 09:51N 48°10' W 123°19'512.9
2018-Jun-22 09:29N 48°13' W 123°13'4 7.3
2018-Jun-22 08:59N 48°15' W 123°09'0 0.8
2018-Jun-22 08:27N 48°16' W 123°09'511.5
2018-Jun-22 07:59N 48°19' W 123°03'611.9
2018-Jun-22 07:30N 48°21' W 122°55'611.2
2018-Jun-22 07:01N 48°24' W 122°48'5 9.9
2018-Jun-22 06:30N 48°29' W 122°44'4 7.6
2018-Jun-22 06:00N 48°31' W 122°40'3 6.2
2018-Jun-22 05:31N 48°31' W 122°36'1 2.7
2018-Jun-22 05:00N 48°31' W 122°34'0 0.0
2018-Jun-22 04:30N 48°31' W 122°34'0 0.0
2018-Jun-22 04:00N 48°31' W 122°34'0 0.0
2018-Jun-22 03:30N 48°31' W 122°34'0 0.0
2018-Jun-22 03:00N 48°31' W 122°34'0 0.0
2018-Jun-22 02:30N 48°31' W 122°34'0 0.0
2018-Jun-22 02:00N 48°31' W 122°34'0 0.0
2018-Jun-22 01:30N 48°31' W 122°34'0 0.0
2018-Jun-22 01:00N 48°31' W 122°34'0 0.0
2018-Jun-22 00:30N 48°31' W 122°34'0 0.0
2018-Jun-22 00:00N 48°31' W 122°34'0 0.0
2018-Jun-21 23:30N 48°31' W 122°34'0 0.0
2018-Jun-21 23:00N 48°31' W 122°34'0 0.0
2018-Jun-21 22:30N 48°31' W 122°34'0 0.0
2018-Jun-21 22:00N 48°31' W 122°34'0 0.0
2018-Jun-21 21:30N 48°31' W 122°34'0 0.0
2018-Jun-21 21:00N 48°31' W 122°34'0 0.0
2018-Jun-21 20:30N 48°31' W 122°34'0 0.0
2018-Jun-21 20:00N 48°31' W 122°34'0 0.0
2018-Jun-21 19:30N 48°31' W 122°34'0 0.0
2018-Jun-21 19:00N 48°31' W 122°34'0 0.0
2018-Jun-21 18:30N 48°31' W 122°34'0 0.0
2018-Jun-21 18:00N 48°31' W 122°34'0 0.0
2018-Jun-21 17:30N 48°31' W 122°34'0 0.0
2018-Jun-21 17:00N 48°31' W 122°34'0 0.0
2018-Jun-21 16:30N 48°31' W 122°34'0 0.0
2018-Jun-21 16:00N 48°31' W 122°34'0 0.0
2018-Jun-21 15:30N 48°31' W 122°34'0 0.0
2018-Jun-21 15:00N 48°31' W 122°34'0 0.0
2018-Jun-21 14:30N 48°31' W 122°34'0 0.0
2018-Jun-21 14:00N 48°31' W 122°34'0 0.0
2018-Jun-21 13:30N 48°31' W 122°34'0 0.0
2018-Jun-21 13:00N 48°31' W 122°34'0 0.0
2018-Jun-21 12:30N 48°31' W 122°34'0 0.0
2018-Jun-21 12:00N 48°31' W 122°34'0 0.0
2018-Jun-21 11:30N 48°31' W 122°34'0 0.0
2018-Jun-21 11:00N 48°31' W 122°34'0 0.0
2018-Jun-21 10:30N 48°31' W 122°34'0 0.0
2018-Jun-21 10:00N 48°31' W 122°34'0 0.0
2018-Jun-21 09:30N 48°31' W 122°34'0 0.0
2018-Jun-21 08:48N 48°31' W 122°34'0 0.0
2018-Jun-21 08:30N 48°31' W 122°34'0 0.0
2018-Jun-21 08:00N 48°31' W 122°34'0 0.0
2018-Jun-21 07:30N 48°31' W 122°34'0 0.0
2018-Jun-21 07:00N 48°31' W 122°34'0 0.0
2018-Jun-21 06:30N 48°31' W 122°34'0 0.0
2018-Jun-21 06:00N 48°31' W 122°34'0 0.0
2018-Jun-21 05:30N 48°31' W 122°34'0 0.0
2018-Jun-21 05:00N 48°31' W 122°34'0 0.0
2018-Jun-21 04:30N 48°31' W 122°34'0 0.0
2018-Jun-21 04:00N 48°31' W 122°34'0 0.0
2018-Jun-21 03:30N 48°31' W 122°34'0 0.0
2018-Jun-21 02:59N 48°31' W 122°34'0 0.0
2018-Jun-21 02:30N 48°31' W 122°34'0 0.0
2018-Jun-21 02:00N 48°31' W 122°34'0 0.0
2018-Jun-21 01:30N 48°31' W 122°34'0 0.0
2018-Jun-21 01:00N 48°31' W 122°34'0 0.0
2018-Jun-21 00:30N 48°31' W 122°34'0 0.0
2018-Jun-21 00:00N 48°31' W 122°34'0 0.0
2018-Jun-20 23:30N 48°31' W 122°34'0 0.0
2018-Jun-20 23:00N 48°31' W 122°34'0 0.0
2018-Jun-20 22:30N 48°31' W 122°34'0 0.0
2018-Jun-20 22:00N 48°31' W 122°34'0 0.0
2018-Jun-20 21:30N 48°31' W 122°34'0 0.0
2018-Jun-20 21:00N 48°31' W 122°34'0 0.0
2018-Jun-20 20:30N 48°31' W 122°34'0 0.0
2018-Jun-20 20:00N 48°31' W 122°34'0 0.0
2018-Jun-20 19:30N 48°31' W 122°34'0 0.0
2018-Jun-20 19:00N 48°31' W 122°34'0 0.0
2018-Jun-20 18:30N 48°31' W 122°34'0 0.0
2018-Jun-20 18:00N 48°31' W 122°34'0 0.0
2018-Jun-20 17:30N 48°31' W 122°34'0 0.0
2018-Jun-20 17:00N 48°31' W 122°34'0 0.0
2018-Jun-20 16:30N 48°31' W 122°34'0 0.0
2018-Jun-20 16:00N 48°31' W 122°34'0 0.0
2018-Jun-20 15:30N 48°31' W 122°34'0 0.0
2018-Jun-20 15:00N 48°31' W 122°34'0 0.0
2018-Jun-20 14:30N 48°31' W 122°34'0 0.0
2018-Jun-20 14:00N 48°31' W 122°34'0 0.0
2018-Jun-20 13:30N 48°31' W 122°34'0 0.0
2018-Jun-20 13:00N 48°31' W 122°34'0 0.0
2018-Jun-20 12:30N 48°31' W 122°34'0 0.0
2018-Jun-20 12:00N 48°31' W 122°34'0 0.0
2018-Jun-20 11:30N 48°31' W 122°34'0 0.0
2018-Jun-20 11:00N 48°31' W 122°34'0 0.0
2018-Jun-20 10:30N 48°31' W 122°34'0 0.0
2018-Jun-20 10:00N 48°31' W 122°34'0 0.0
2018-Jun-20 09:30N 48°31' W 122°34'0 0.0
2018-Jun-20 09:00N 48°31' W 122°34'0 0.0
2018-Jun-20 08:29N 48°31' W 122°34'0 0.0
2018-Jun-20 08:00N 48°31' W 122°34'0 0.0
2018-Jun-20 07:30N 48°31' W 122°34'0 0.0
2018-Jun-20 07:00N 48°31' W 122°34'0 0.0
2018-Jun-20 06:30N 48°31' W 122°34'0 0.0
2018-Jun-20 05:59N 48°31' W 122°34'0 0.0
2018-Jun-20 05:30N 48°31' W 122°34'0 0.0
2018-Jun-20 05:00N 48°31' W 122°34'0 0.0
2018-Jun-20 04:30N 48°31' W 122°34'0 0.0
2018-Jun-20 04:00N 48°31' W 122°34'0 0.0
2018-Jun-20 03:30N 48°31' W 122°34'0 0.0
2018-Jun-20 03:00N 48°31' W 122°34'0 0.0
2018-Jun-20 02:30N 48°31' W 122°34'0 0.0
2018-Jun-20 02:00N 48°31' W 122°34'0 0.0
2018-Jun-20 01:29N 48°31' W 122°34'0 0.0
2018-Jun-20 00:59N 48°31' W 122°34'0 0.0
2018-Jun-20 00:30N 48°31' W 122°34'0 0.0
2018-Jun-20 00:00N 48°31' W 122°34'0 0.0
2018-Jun-19 23:30N 48°31' W 122°34'0 0.0
2018-Jun-19 22:59N 48°31' W 122°34'0 0.0
2018-Jun-19 22:30N 48°31' W 122°34'0 0.0
2018-Jun-19 22:00N 48°31' W 122°34'0 0.0
2018-Jun-19 21:30N 48°31' W 122°34'0 0.0
2018-Jun-19 20:59N 48°31' W 122°34'0 0.0
2018-Jun-19 20:30N 48°31' W 122°34'0 0.0
2018-Jun-19 20:00N 48°31' W 122°34'0 0.0
2018-Jun-19 19:30N 48°31' W 122°34'0 0.0
2018-Jun-19 19:00N 48°31' W 122°34'0 0.0
2018-Jun-19 18:29N 48°31' W 122°34'0 0.0
2018-Jun-19 17:59N 48°31' W 122°34'0 0.0
2018-Jun-19 17:29N 48°31' W 122°34'0 0.0
2018-Jun-19 16:59N 48°31' W 122°34'0 0.0
2018-Jun-19 16:29N 48°31' W 122°34'0 0.0
2018-Jun-19 15:59N 48°31' W 122°34'0 0.0
2018-Jun-19 15:30N 48°31' W 122°34'0 0.0
2018-Jun-19 14:59N 48°31' W 122°34'0 0.0
2018-Jun-19 14:30N 48°31' W 122°34'0 0.0
2018-Jun-19 13:59N 48°31' W 122°34'0 0.0
2018-Jun-19 13:29N 48°31' W 122°34'0 0.0
2018-Jun-19 12:59N 48°31' W 122°34'0 0.0
2018-Jun-19 12:29N 48°31' W 122°34'0 0.0
2018-Jun-19 11:59N 48°31' W 122°34'0 0.0
2018-Jun-19 11:29N 48°31' W 122°34'0 0.0
2018-Jun-19 10:59N 48°31' W 122°34'0 0.0
2018-Jun-19 10:29N 48°31' W 122°34'0 0.0
2018-Jun-19 09:59N 48°31' W 122°34'0 0.0
2018-Jun-19 09:29N 48°31' W 122°34'0 0.0
2018-Jun-19 08:59N 48°31' W 122°34'0 0.0
2018-Jun-19 08:29N 48°31' W 122°34'0 0.0
2018-Jun-19 07:59N 48°31' W 122°34'0 0.0
2018-Jun-19 07:29N 48°31' W 122°34'0 0.0
2018-Jun-19 06:59N 48°31' W 122°34'0 0.0
2018-Jun-19 06:29N 48°31' W 122°34'0 0.0
2018-Jun-19 05:59N 48°31' W 122°34'0 0.0
2018-Jun-19 05:29N 48°31' W 122°34'0 0.0
2018-Jun-19 04:59N 48°31' W 122°34'0 0.0
2018-Jun-19 04:29N 48°31' W 122°34'0 0.0
2018-Jun-19 03:59N 48°31' W 122°34'0 0.0
2018-Jun-19 03:29N 48°31' W 122°34'0 0.0
2018-Jun-19 02:59N 48°31' W 122°34'0 0.0
2018-Jun-19 02:29N 48°31' W 122°34'0 0.0
2018-Jun-19 01:59N 48°31' W 122°34'0 0.0
2018-Jun-19 01:29N 48°31' W 122°34'0 0.0
2018-Jun-19 00:59N 48°31' W 122°34'0 0.0
2018-Jun-19 00:29N 48°31' W 122°34'0 0.0
2018-Jun-18 23:59N 48°31' W 122°34'0 0.0
2018-Jun-18 23:29N 48°31' W 122°34'0 0.0
2018-Jun-18 22:59N 48°31' W 122°34'0 0.0
2018-Jun-18 22:29N 48°31' W 122°34'0 0.0
2018-Jun-18 21:59N 48°31' W 122°34'0 0.0
2018-Jun-18 21:29N 48°31' W 122°34'0 0.0
2018-Jun-18 20:59N 48°31' W 122°34'0 0.0
2018-Jun-18 20:29N 48°31' W 122°34'0 0.0
2018-Jun-18 19:59N 48°31' W 122°34'0 0.0
2018-Jun-18 19:29N 48°31' W 122°34'0 0.0
2018-Jun-18 18:59N 48°31' W 122°34'0 0.0
2018-Jun-18 18:29N 48°31' W 122°34'0 0.0
2018-Jun-18 17:59N 48°31' W 122°34'0 0.0
2018-Jun-18 17:29N 48°31' W 122°34'0 0.0
2018-Jun-18 16:59N 48°31' W 122°34'0 0.0
2018-Jun-18 16:29N 48°31' W 122°34'0 0.0
2018-Jun-18 15:59N 48°31' W 122°34'0 0.0
2018-Jun-18 15:29N 48°31' W 122°34'0 0.0
2018-Jun-18 14:59N 48°31' W 122°34'0 0.0
2018-Jun-18 14:29N 48°31' W 122°34'0 0.0
2018-Jun-18 13:59N 48°31' W 122°34'0 0.0
2018-Jun-18 13:29N 48°31' W 122°34'0 0.0
2018-Jun-18 12:59N 48°31' W 122°34'0 0.0
2018-Jun-18 12:30N 48°31' W 122°34'1 1.5
2018-Jun-18 12:00N 48°31' W 122°35'3 5.2
2018-Jun-18 11:30N 48°31' W 122°39'4 7.9
2018-Jun-18 11:00N 48°29' W 122°44'5 9.1
2018-Jun-18 10:30N 48°25' W 122°47'611.1
2018-Jun-18 10:00N 48°22' W 122°54'611.9
2018-Jun-18 09:28N 48°18' W 123°02'611.6
2018-Jun-18 08:57N 48°15' W 123°09'21 9.3
2018-Jun-18 06:43N 48°13' W 123°40'311.8
2018-Jun-18 06:30N 48°13' W 123°44'611.3
2018-Jun-18 05:58N 48°13' W 123°53'611.6
2018-Jun-18 05:28N 48°15' W 124°01'511.8
2018-Jun-18 05:00N 48°18' W 124°09'612.1
2018-Jun-18 04:30N 48°20' W 124°17'612.5
2018-Jun-18 04:00N 48°23' W 124°26'612.5
2018-Jun-18 03:30N 48°26' W 124°34'612.2
2018-Jun-18 03:00N 48°28' W 124°42'611.8
2018-Jun-18 02:30N 48°29' W 124°51'611.6
2018-Jun-18 01:59N 48°29' W 125°00'612.3
2018-Jun-18 01:30N 48°29' W 125°09'612.3
2018-Jun-18 01:00N 48°29' W 125°19'612.1
2018-Jun-18 00:30N 48°29' W 125°28'611.4
2018-Jun-18 00:00N 48°29' W 125°36'611.6
2018-Jun-17 23:30N 48°29' W 125°45'611.8
2018-Jun-17 23:00N 48°29' W 125°54'611.8
2018-Jun-17 22:30N 48°28' W 126°03'611.5
2018-Jun-17 22:00N 48°29' W 126°12'611.8
2018-Jun-17 21:30N 48°29' W 126°21'612.0
2018-Jun-17 21:00N 48°29' W 126°30'611.7
2018-Jun-17 20:30N 48°29' W 126°38'611.8
2018-Jun-17 20:00N 48°29' W 126°47'611.3
2018-Jun-17 19:30N 48°29' W 126°56'611.7
2018-Jun-17 19:00N 48°32' W 127°04'611.8
2018-Jun-17 18:30N 48°35' W 127°12'611.7
2018-Jun-17 18:00N 48°37' W 127°20'612.1
2018-Jun-17 17:30N 48°40' W 127°28'611.6
2018-Jun-17 17:00N 48°43' W 127°35'7712.3
2018-Jun-17 10:45N 49°20' W 129°18'513.7
2018-Jun-17 10:25N 49°23' W 129°24'613.6
2018-Jun-17 10:00N 49°26' W 129°31'713.7
2018-Jun-17 09:30N 49°29' W 129°40'713.5
2018-Jun-17 09:00N 49°32' W 129°50'713.5
2018-Jun-17 08:31N 49°35' W 129°59'713.5
2018-Jun-17 08:01N 49°38' W 130°08'713.6
2018-Jun-17 07:30N 49°42' W 130°17'713.5
2018-Jun-17 07:01N 49°45' W 130°26'713.5
2018-Jun-17 06:30N 49°48' W 130°36'1813.8
2018-Jun-17 05:10N 49°57' W 131°01'214.0
2018-Jun-17 05:01N 49°58' W 131°04'714.2
2018-Jun-17 04:30N 50°01' W 131°13'714.0
2018-Jun-17 04:00N 50°05' W 131°23'714.4
2018-Jun-17 03:31N 50°08' W 131°33'714.4
2018-Jun-17 03:00N 50°12' W 131°43'714.3
2018-Jun-17 02:30N 50°15' W 131°53'713.8
2018-Jun-17 02:00N 50°18' W 132°02'713.6
2018-Jun-17 01:30N 50°22' W 132°11'813.9
2018-Jun-17 00:57N 50°25' W 132°22'613.9
2018-Jun-17 00:30N 50°28' W 132°30'2613.6
2018-Jun-16 22:35N 50°41' W 133°06'113.0
2018-Jun-16 22:29N 50°42' W 133°08'613.2
2018-Jun-16 22:00N 50°45' W 133°16'1113.3
2018-Jun-16 21:11N 50°52' W 133°30'313.5
2018-Jun-16 20:59N 50°54' W 133°33'613.4
2018-Jun-16 20:30N 50°57' W 133°42'1936.1
2018-Jun-16 20:00N 51°12' W 134°00'31513.1 320 / 161028.410.8 15.5 10.8
2018-Jun-15 20:00N 54°24' W 140°54'31913.3 140 / 201027.1 5.4 11.5 9.3
2018-Jun-14 20:00N 57°36' W 148°30'   250 / 271018.510.8 12.0 8.9

Dump ship's entire track history